Time;durP1;ratioP1;P1;durP2;ratioP2;P2;SDS_P1;SDS_P2;PMS_P1;PMS_P2;Temp;Humidity;BMP_temperature;BMP_pressure;BME280_temperature;BME280_humidity;BME280_pressure;Samples;Min_cycle;Max_cycle;Signal;HPM_P1;HPM_P2
2022/05/04 00:00:56;;;;;;;10.18;9.20;;;21.90;76.40;;;;;;5915227;29;88410;-70
2022/05/04 00:03:58;;;;;;;9.40;8.50;;;21.90;76.40;;;;;;5922625;29;89351;-70
2022/05/04 00:07:00;;;;;;;9.77;8.88;;;21.90;76.50;;;;;;5913003;29;89203;-69
2022/05/04 00:10:04;;;;;;;10.00;9.00;;;21.90;76.40;;;;;;5912769;29;90102;-70
2022/05/04 00:13:06;;;;;;;10.65;9.65;;;21.80;76.40;;;;;;5909198;29;89141;-69
2022/05/04 00:16:08;;;;;;;10.73;9.73;;;21.90;76.50;;;;;;5916823;29;89243;-70
2022/05/04 00:19:10;;;;;;;10.77;9.77;;;21.80;77.30;;;;;;5925235;29;89075;-69
2022/05/04 00:22:17;;;;;;;10.63;9.60;;;21.80;76.40;;;;;;5905953;29;89077;-70
2022/05/04 00:25:21;;;;;;;11.20;10.10;;;21.80;76.40;;;;;;5914454;29;89206;-71
2022/05/04 00:28:22;;;;;;;9.60;8.70;;;21.80;76.40;;;;;;5919235;29;87926;-69
2022/05/04 00:31:24;;;;;;;10.73;9.73;;;21.80;76.40;;;;;;5912974;29;87033;-70
2022/05/04 00:34:27;;;;;;;11.65;10.55;;;21.80;76.30;;;;;;5912596;29;89120;-70
2022/05/04 00:37:29;;;;;;;11.85;10.75;;;21.90;76.30;;;;;;5924140;29;89384;-70
2022/05/04 00:40:32;;;;;;;11.57;10.48;;;21.80;76.20;;;;;;5911439;29;90388;-69
2022/05/04 00:43:34;;;;;;;11.38;10.27;;;21.90;76.30;;;;;;5901541;29;89137;-69
2022/05/04 00:46:36;;;;;;;12.15;10.95;;;21.90;76.30;;;;;;5923432;29;89089;-70
2022/05/04 00:49:40;;;;;;;11.75;10.65;;;21.80;76.30;;;;;;5917307;29;89482;-70
2022/05/04 00:52:44;;;;;;;12.35;11.15;;;21.90;76.40;;;;;;5937172;29;88336;-70
2022/05/04 00:55:48;;;;;;;12.13;11.02;;;21.80;76.30;;;;;;5921174;29;89351;-69
2022/05/04 00:58:56;;;;;;;11.93;10.82;;;21.90;76.40;;;;;;5933608;29;89189;-70
2022/05/04 01:01:59;;;;;;;12.57;11.35;;;21.80;76.30;;;;;;5912035;29;88404;-69
2022/05/04 01:05:01;;;;;;;12.18;10.98;;;21.80;76.30;;;;;;5911856;29;88012;-70
2022/05/04 01:08:04;;;;;;;12.10;10.95;;;21.80;76.40;;;;;;5923832;29;89195;-70
2022/05/04 01:11:07;;;;;;;12.95;11.70;;;21.80;76.30;;;;;;5900360;29;90044;-69
2022/05/04 01:14:11;;;;;;;11.90;10.80;;;21.80;76.40;;;;;;5908338;29;89298;-69
2022/05/04 01:17:13;;;;;;;12.32;11.13;;;21.80;76.30;;;;;;5915662;29;89231;-69
2022/05/04 01:20:16;;;;;;;12.77;11.50;;;21.80;76.30;;;;;;5906502;29;89168;-71
2022/05/04 01:23:19;;;;;;;12.63;11.32;;;21.80;76.30;;;;;;5914573;29;89334;-69
2022/05/04 01:26:22;;;;;;;12.68;11.48;;;21.80;76.20;;;;;;5915205;29;89317;-69
2022/05/04 01:29:24;;;;;;;12.43;11.23;;;21.80;76.30;;;;;;5923029;29;87177;-69
2022/05/04 01:32:26;;;;;;;12.82;11.63;;;21.80;76.30;;;;;;5923260;29;88687;-70
2022/05/04 01:35:28;;;;;;;12.93;11.73;;;21.80;76.20;;;;;;5922988;29;89189;-70
2022/05/04 01:38:31;;;;;;;14.05;12.65;;;21.90;76.40;;;;;;5911109;29;89126;-69
2022/05/04 01:44:53;;;;;;;12.88;11.68;;;21.80;76.30;;;;;;5914876;29;88166;-68
2022/05/04 01:47:55;;;;;;;13.95;12.55;;;21.80;76.40;;;;;;5924791;29;89652;-69
2022/05/04 01:50:57;;;;;;;13.43;12.13;;;21.80;76.40;;;;;;5939681;29;89129;-67
2022/05/04 01:54:00;;;;;;;13.18;11.88;;;21.80;76.40;;;;;;5927835;29;90065;-69
2022/05/04 01:57:02;;;;;;;13.48;12.18;;;21.80;76.40;;;;;;5926999;29;89033;-69
2022/05/04 02:00:06;;;;;;;13.52;12.25;;;21.80;76.30;;;;;;5921724;29;88375;-70
2022/05/04 02:03:08;;;;;;;13.98;12.68;;;21.80;76.40;;;;;;5914293;29;88400;-70
2022/05/04 02:06:11;;;;;;;14.15;12.80;;;21.80;76.40;;;;;;5929067;29;89345;-70
2022/05/04 02:09:15;;;;;;;13.52;12.23;;;21.80;76.40;;;;;;5915303;29;89052;-70
2022/05/04 02:12:35;;;;;;;13.25;11.95;;;21.80;76.30;;;;;;5914940;29;90095;-70
2022/05/04 02:15:37;;;;;;;13.48;12.18;;;21.80;76.30;;;;;;5916619;29;89009;-69
2022/05/04 02:18:39;;;;;;;13.50;12.20;;;21.80;76.20;;;;;;5926365;29;89232;-69
2022/05/04 02:21:41;;;;;;;13.18;11.90;;;21.80;76.20;;;;;;5918102;29;89222;-70
2022/05/04 02:24:44;;;;;;;13.23;11.93;;;21.80;76.20;;;;;;5921058;29;89084;-70
2022/05/04 02:27:46;;;;;;;13.90;12.60;;;21.80;76.20;;;;;;5915878;29;89101;-70
2022/05/04 02:30:48;;;;;;;13.05;11.75;;;21.80;76.20;;;;;;5916014;29;89113;-69
2022/05/04 02:33:50;;;;;;;13.80;12.50;;;21.80;76.20;;;;;;5921162;29;88308;-70
2022/05/04 02:40:13;;;;;;;13.25;12.05;;;21.80;76.20;;;;;;5919960;29;87036;-70
2022/05/04 02:43:15;;;;;;;13.45;12.15;;;21.80;76.20;;;;;;5913588;29;90013;-70
2022/05/04 02:46:18;;;;;;;13.63;12.32;;;21.80;76.20;;;;;;5926403;29;89385;-70
2022/05/04 02:49:21;;;;;;;12.80;11.55;;;21.80;76.20;;;;;;5926056;29;89357;-70
2022/05/04 02:52:23;;;;;;;13.57;12.27;;;21.80;76.20;;;;;;5915191;29;89214;-69
2022/05/04 02:55:26;;;;;;;14.00;12.70;;;21.80;76.20;;;;;;5916353;29;89097;-70
2022/05/04 02:58:29;;;;;;;14.38;12.98;;;21.80;76.20;;;;;;5937024;29;89161;-70
2022/05/04 03:04:50;;;;;;;13.73;12.43;;;21.80;76.20;;;;;;5926543;29;86577;-70
2022/05/04 03:07:53;;;;;;;12.77;11.57;;;21.80;76.20;;;;;;5913828;29;88047;-70
2022/05/04 03:17:35;;;;;;;13.68;12.38;;;21.80;76.10;;;;;;5922693;29;88403;-69
2022/05/04 03:20:37;;;;;;;13.30;12.10;;;21.80;76.10;;;;;;5915566;29;89183;-69
2022/05/04 03:23:39;;;;;;;12.68;11.38;;;21.80;76.20;;;;;;5915310;29;89117;-69
2022/05/04 03:26:43;;;;;;;13.30;12.10;;;21.80;76.20;;;;;;5914213;29;89036;-70
2022/05/04 03:29:45;;;;;;;13.05;11.85;;;21.80;76.20;;;;;;5913196;29;89075;-70
2022/05/04 03:32:47;;;;;;;12.60;11.40;;;21.80;76.20;;;;;;5913600;29;89117;-70
2022/05/04 03:35:49;;;;;;;12.88;11.68;;;21.80;76.20;;;;;;5924688;29;88334;-69
2022/05/04 03:38:51;;;;;;;13.48;12.27;;;21.80;76.20;;;;;;5925374;29;87915;-70
2022/05/04 03:41:54;;;;;;;12.93;11.63;;;21.80;76.20;;;;;;5920570;29;89212;-69
2022/05/04 03:44:56;;;;;;;13.30;12.02;;;21.80;76.20;;;;;;5913581;29;88935;-69
2022/05/04 03:47:58;;;;;;;13.18;11.88;;;21.80;76.20;;;;;;5903542;29;87954;-68
2022/05/04 03:51:00;;;;;;;12.40;11.25;;;21.80;76.20;;;;;;5914732;29;88996;-68
2022/05/04 03:54:02;;;;;;;12.23;11.13;;;21.80;76.10;;;;;;5914440;29;89103;-70
2022/05/04 03:57:06;;;;;;;12.40;11.20;;;21.80;76.10;;;;;;5915262;29;89135;-70
2022/05/04 04:00:10;;;;;;;12.23;11.13;;;21.80;76.20;;;;;;5919315;29;89223;-69
2022/05/04 04:03:12;;;;;;;11.77;10.68;;;21.80;76.20;;;;;;5913054;29;89162;-69
2022/05/04 04:06:14;;;;;;;12.57;11.38;;;21.80;76.20;;;;;;5910482;29;87267;-70
2022/05/04 04:09:16;;;;;;;12.45;11.25;;;21.80;76.10;;;;;;5914726;29;89131;-69
2022/05/04 04:12:20;;;;;;;12.30;11.10;;;21.80;76.10;;;;;;5913412;29;89154;-70
2022/05/04 04:15:22;;;;;;;11.68;10.57;;;21.80;76.20;;;;;;5913684;29;90283;-70
2022/05/04 04:18:25;;;;;;;12.20;11.05;;;21.80;76.20;;;;;;5921578;29;89075;-70
2022/05/04 04:24:46;;;;;;;11.65;10.55;;;21.80;76.10;;;;;;5912493;29;87329;-70
2022/05/04 04:27:50;;;;;;;12.23;11.02;;;21.80;76.20;;;;;;5912755;29;89186;-68
2022/05/04 04:30:52;;;;;;;11.75;10.65;;;21.80;76.20;;;;;;5906091;29;87985;-69
2022/05/04 04:33:54;;;;;;;11.48;10.38;;;21.80;76.10;;;;;;5917655;29;87910;-70
2022/05/04 04:36:56;;;;;;;11.27;10.27;;;21.80;77.10;;;;;;5924896;29;88402;-69
2022/05/04 04:39:58;;;;;;;11.40;10.40;;;21.80;76.20;;;;;;5910059;29;89017;-69
2022/05/04 04:43:01;;;;;;;11.25;10.15;;;21.80;76.20;;;;;;5914596;29;89181;-68
2022/05/04 04:46:03;;;;;;;11.00;9.90;;;21.80;76.10;;;;;;5911479;29;90035;-70
2022/05/04 04:49:05;;;;;;;10.95;9.95;;;21.80;76.10;;;;;;5912728;29;89127;-70
2022/05/04 04:52:07;;;;;;;10.77;9.77;;;21.80;76.10;;;;;;5903301;29;88969;-69
2022/05/04 04:55:10;;;;;;;11.30;10.20;;;21.80;76.10;;;;;;5914405;29;89385;-70
2022/05/04 04:58:14;;;;;;;10.65;9.65;;;21.80;76.10;;;;;;5930348;29;88023;-69
2022/05/04 05:01:16;;;;;;;10.32;9.43;;;21.80;76.10;;;;;;5923801;29;89046;-70
2022/05/04 05:04:18;;;;;;;10.55;9.55;;;21.70;76.00;;;;;;5913362;29;89158;-69
2022/05/04 05:07:20;;;;;;;10.80;9.80;;;21.80;76.10;;;;;;5913269;29;88393;-70
2022/05/04 05:10:22;;;;;;;10.55;9.55;;;21.80;76.20;;;;;;5912662;29;89179;-69
2022/05/04 05:13:25;;;;;;;10.75;9.75;;;21.80;76.20;;;;;;5912506;29;88017;-70
2022/05/04 05:16:26;;;;;;;9.68;8.77;;;21.80;76.20;;;;;;5911024;29;90057;-68
2022/05/04 05:19:28;;;;;;;10.23;9.23;;;21.80;76.10;;;;;;5911970;29;88047;-70
2022/05/04 05:22:31;;;;;;;10.90;9.85;;;21.80;76.20;;;;;;5912582;29;88349;-69
2022/05/04 05:25:33;;;;;;;9.98;9.07;;;21.80;76.20;;;;;;5912283;29;89268;-69
2022/05/04 05:28:36;;;;;;;9.90;9.00;;;21.80;76.10;;;;;;5911272;29;89514;-69
2022/05/04 05:31:38;;;;;;;9.55;8.65;;;21.80;76.10;;;;;;5901565;29;89272;-69
2022/05/04 05:34:40;;;;;;;9.52;8.63;;;21.80;76.10;;;;;;5912412;29;89201;-70
2022/05/04 05:37:42;;;;;;;10.10;9.20;;;21.80;76.10;;;;;;5924849;29;88556;-69
2022/05/04 05:40:44;;;;;;;9.30;8.40;;;21.80;76.10;;;;;;5904218;29;89054;-68
2022/05/04 05:43:48;;;;;;;9.90;9.00;;;21.80;77.10;;;;;;5908219;29;88980;-70
2022/05/04 05:46:50;;;;;;;9.77;8.63;;;21.80;76.10;;;;;;5911407;29;90112;-70
2022/05/04 05:49:52;;;;;;;9.82;8.93;;;21.70;76.10;;;;;;5912004;29;89152;-69
2022/05/04 05:52:54;;;;;;;8.85;8.00;;;21.80;76.20;;;;;;5911736;29;89327;-70
2022/05/04 05:55:56;;;;;;;8.80;8.00;;;21.80;76.20;;;;;;5916526;29;89299;-70
2022/05/04 05:58:59;;;;;;;8.90;8.10;;;21.80;76.20;;;;;;5929248;29;89165;-70
2022/05/04 06:02:02;;;;;;;8.95;8.15;;;21.70;76.20;;;;;;5923881;29;87986;-69
2022/05/04 06:05:04;;;;;;;8.95;8.15;;;21.70;76.20;;;;;;5912047;29;89225;-70
2022/05/04 06:08:09;;;;;;;9.02;8.23;;;21.70;76.20;;;;;;5912303;29;87347;-70
2022/05/04 06:11:11;;;;;;;9.07;8.18;;;21.70;76.20;;;;;;5911488;29;89448;-69
2022/05/04 06:14:15;;;;;;;8.52;7.80;;;21.80;76.30;;;;;;5922002;29;89008;-70
2022/05/04 06:17:17;;;;;;;9.30;8.50;;;21.80;76.30;;;;;;5912727;29;88626;-69
2022/05/04 06:20:20;;;;;;;8.63;7.82;;;21.70;76.20;;;;;;5912296;29;89239;-70
2022/05/04 06:23:22;;;;;;;7.85;7.15;;;21.80;76.20;;;;;;5911760;29;88138;-69
2022/05/04 06:26:24;;;;;;;8.50;7.70;;;21.80;76.20;;;;;;5923807;29;89144;-70
2022/05/04 06:34:06;;;;;;;8.10;7.40;;;21.80;76.20;;;;;;5913622;29;89064;-69
2022/05/04 06:36:10;;;;;;;8.68;7.85;;;21.70;76.20;;;;;;5917375;29;87212;-69
2022/05/04 06:39:12;;;;;;;8.23;7.45;;;21.80;76.20;;;;;;5917110;29;88421;-69
2022/05/04 06:42:16;;;;;;;7.90;7.20;;;21.70;76.30;;;;;;5904607;29;89187;-69
2022/05/04 06:45:19;;;;;;;8.68;7.88;;;21.70;76.20;;;;;;5916936;29;88043;-69
2022/05/04 06:48:21;;;;;;;7.97;7.28;;;21.70;76.20;;;;;;5920461;29;90264;-69
2022/05/04 06:51:23;;;;;;;7.93;7.22;;;21.80;76.30;;;;;;5914988;29;89206;-69
2022/05/04 06:54:25;;;;;;;7.90;7.20;;;21.70;76.20;;;;;;5915490;29;87990;-69
2022/05/04 06:57:27;;;;;;;7.60;6.90;;;21.80;76.30;;;;;;5934986;29;89135;-70
2022/05/04 07:00:30;;;;;;;7.82;7.13;;;21.80;76.30;;;;;;5918701;29;89116;-69
2022/05/04 07:03:32;;;;;;;7.85;7.15;;;21.80;76.40;;;;;;5921023;29;88833;-70
2022/05/04 07:06:34;;;;;;;7.70;6.97;;;21.80;76.30;;;;;;5915937;29;89178;-69
2022/05/04 07:09:36;;;;;;;7.88;7.18;;;21.70;76.20;;;;;;5919260;29;87260;-69
2022/05/04 07:12:38;;;;;;;7.93;7.22;;;21.80;76.20;;;;;;5924682;29;89122;-69
2022/05/04 07:15:42;;;;;;;7.18;6.57;;;21.80;76.20;;;;;;5915820;29;89462;-69
2022/05/04 07:18:44;;;;;;;7.60;6.90;;;21.80;76.20;;;;;;5925291;29;90039;-68
2022/05/04 07:21:46;;;;;;;7.55;6.85;;;21.80;76.20;;;;;;5914040;29;89442;-70
2022/05/04 07:24:48;;;;;;;7.43;6.82;;;21.80;77.10;;;;;;5914376;29;89267;-70
2022/05/04 07:27:50;;;;;;;7.43;6.78;;;21.80;76.20;;;;;;5914456;29;88141;-69
2022/05/04 07:30:53;;;;;;;7.15;6.53;;;21.80;76.30;;;;;;5925879;29;89122;-68
2022/05/04 07:33:55;;;;;;;7.57;6.88;;;21.80;76.20;;;;;;5926286;29;89099;-70
2022/05/04 07:36:57;;;;;;;7.03;6.43;;;21.80;76.20;;;;;;5910381;29;89118;-69
2022/05/04 07:43:19;;;;;;;6.97;6.38;;;21.80;76.30;;;;;;5918988;29;87269;-69
2022/05/04 07:46:23;;;;;;;7.10;6.50;;;21.80;76.40;;;;;;5924037;29;87899;-69
2022/05/04 07:49:24;;;;;;;7.20;6.60;;;21.80;76.40;;;;;;5914052;29;90085;-69
2022/05/04 07:52:27;;;;;;;7.00;6.40;;;21.80;77.20;;;;;;5902910;29;89177;-70
2022/05/04 07:55:30;;;;;;;7.32;6.65;;;21.80;76.40;;;;;;5905169;29;89153;-69
2022/05/04 07:58:32;;;;;;;7.22;6.53;;;21.80;76.40;;;;;;5939234;29;87919;-69
2022/05/04 08:04:55;;;;;;;6.80;6.20;;;21.80;76.30;;;;;;5913676;29;87542;-70
2022/05/04 08:07:57;;;;;;;7.03;6.43;;;21.80;76.20;;;;;;5913922;29;89059;-69
2022/05/04 08:10:59;;;;;;;6.80;6.20;;;21.80;76.20;;;;;;5912707;29;87213;-69
2022/05/04 08:14:01;;;;;;;6.78;6.18;;;21.80;76.20;;;;;;5903298;29;89150;-70
2022/05/04 08:17:06;;;;;;;6.75;6.15;;;21.80;76.30;;;;;;5913483;29;89198;-69
2022/05/04 08:20:08;;;;;;;6.55;5.95;;;21.80;76.30;;;;;;5912782;29;90095;-70
2022/05/04 08:23:10;;;;;;;6.78;6.18;;;21.80;76.40;;;;;;5913425;29;89107;-68
2022/05/04 08:26:13;;;;;;;6.70;6.10;;;21.80;76.40;;;;;;5913255;29;89119;-70
2022/05/04 08:29:15;;;;;;;6.82;6.22;;;21.80;76.40;;;;;;5917972;29;87984;-69
2022/05/04 08:32:18;;;;;;;6.50;5.90;;;21.80;76.40;;;;;;5914895;29;87969;-69
2022/05/04 08:35:20;;;;;;;6.65;6.05;;;21.80;76.50;;;;;;5918555;29;89242;-69
2022/05/04 08:38:23;;;;;;;6.60;6.00;;;21.80;76.50;;;;;;5912927;29;89123;-69
2022/05/04 08:41:26;;;;;;;6.40;5.80;;;21.80;76.60;;;;;;5924595;29;88354;-69
2022/05/04 08:44:29;;;;;;;6.18;5.57;;;21.80;76.60;;;;;;5913083;29;89279;-69
2022/05/04 08:47:33;;;;;;;6.25;5.75;;;21.80;76.60;;;;;;5912646;29;89125;-69
2022/05/04 08:50:39;;;;;;;6.10;5.60;;;21.80;76.50;;;;;;5912446;29;90047;-70
2022/05/04 08:53:42;;;;;;;6.55;5.97;;;21.80;76.50;;;;;;5924201;29;89305;-69
2022/05/04 08:56:44;;;;;;;6.35;5.75;;;21.80;76.40;;;;;;5917848;29;87971;-68
2022/05/04 08:59:46;;;;;;;6.50;5.90;;;21.90;76.60;;;;;;5921599;29;88267;-69
2022/05/04 09:02:50;;;;;;;6.35;5.80;;;21.80;76.40;;;;;;5912213;29;89406;-69
2022/05/04 09:05:55;;;;;;;6.10;5.55;;;21.90;76.50;;;;;;5913743;29;89133;-69
2022/05/04 09:08:59;;;;;;;5.80;5.30;;;21.80;76.40;;;;;;5914008;29;89136;-69
2022/05/04 09:12:03;;;;;;;5.95;5.45;;;21.90;76.60;;;;;;5914564;29;88435;-69
2022/05/04 09:15:08;;;;;;;5.70;5.18;;;21.90;76.60;;;;;;5901743;29;89110;-69
2022/05/04 09:18:13;;;;;;;5.32;4.90;;;21.80;76.50;;;;;;5919566;29;88879;-69
2022/05/04 09:21:21;;;;;;;5.95;5.45;;;21.90;76.60;;;;;;5912025;29;90017;-69
2022/05/04 09:24:27;;;;;;;5.63;5.13;;;21.90;76.60;;;;;;5912745;29;89151;-69
2022/05/04 09:27:30;;;;;;;5.93;5.43;;;21.90;76.60;;;;;;5912324;29;89313;-69
2022/05/04 09:30:33;;;;;;;5.75;5.15;;;21.90;76.60;;;;;;5912479;29;89145;-69
2022/05/04 09:33:38;;;;;;;5.63;5.13;;;21.80;76.60;;;;;;5909759;29;89671;-69
2022/05/04 09:44:54;;;;;;;5.97;5.47;;;21.90;76.70;;;;;;5915050;29;89118;-69
2022/05/04 09:46:50;;;;;;;4.90;4.50;;;21.90;76.70;;;;;;5906874;29;88286;-69
2022/05/04 09:50:02;;;;;;;5.57;5.07;;;21.90;76.60;;;;;;5906044;29;88773;-69
2022/05/04 09:53:05;;;;;;;5.38;4.93;;;21.90;76.60;;;;;;5918777;29;90042;-69
2022/05/04 09:56:09;;;;;;;5.20;4.53;;;21.90;76.60;;;;;;5919011;29;89525;-70
2022/05/04 09:59:12;;;;;;;5.57;5.07;;;21.90;76.60;;;;;;5924309;29;89357;-69
2022/05/04 10:02:15;;;;;;;5.78;5.28;;;21.90;76.60;;;;;;5912755;29;89047;-69
2022/05/04 10:05:20;;;;;;;5.13;4.72;;;21.90;76.60;;;;;;5916334;29;89394;-69
2022/05/04 10:08:22;;;;;;;5.30;4.80;;;21.90;76.60;;;;;;5916892;29;89077;-69
2022/05/04 10:11:24;;;;;;;5.40;4.90;;;21.90;76.60;;;;;;5922286;29;89013;-69
2022/05/04 10:14:30;;;;;;;5.07;4.68;;;21.90;76.60;;;;;;5915841;29;88486;-69
2022/05/04 10:17:33;;;;;;;5.03;4.63;;;21.90;76.60;;;;;;5925598;29;89115;-69
2022/05/04 10:20:40;;;;;;;4.90;4.50;;;21.90;76.70;;;;;;5915340;29;87964;-69
2022/05/04 10:23:46;;;;;;;4.93;4.53;;;21.90;76.60;;;;;;5926037;29;89275;-69
2022/05/04 10:26:48;;;;;;;4.60;4.20;;;21.90;76.70;;;;;;5927094;29;89145;-69
2022/05/04 10:33:19;;;;;;;4.95;4.55;;;21.90;76.70;;;;;;5916261;29;87203;-69
2022/05/04 10:36:30;;;;;;;4.95;4.55;;;21.90;76.70;;;;;;5904964;29;89084;-69
2022/05/04 10:39:32;;;;;;;4.88;4.47;;;21.90;76.80;;;;;;5915540;29;89100;-69
2022/05/04 10:43:02;;;;;;;4.60;4.20;;;21.90;76.70;;;;;;5917290;29;89098;-69
2022/05/04 10:46:12;;;;;;;4.93;4.53;;;21.90;76.70;;;;;;5905592;29;88307;-68
2022/05/04 10:49:16;;;;;;;4.60;4.20;;;21.90;76.70;;;;;;5915369;29;88055;-69
2022/05/04 10:52:20;;;;;;;5.00;4.60;;;21.90;76.60;;;;;;5904702;29;89517;-69
2022/05/04 10:55:22;;;;;;;4.55;4.15;;;21.90;76.60;;;;;;5915451;29;90139;-69
2022/05/04 10:58:35;;;;;;;4.80;4.40;;;21.90;76.70;;;;;;5933899;29;89102;-69
2022/05/04 11:01:38;;;;;;;4.72;4.32;;;21.90;76.70;;;;;;5914666;29;89032;-69
2022/05/04 11:04:41;;;;;;;4.75;4.35;;;21.90;76.70;;;;;;5914990;29;88141;-70
2022/05/04 11:07:48;;;;;;;4.68;4.28;;;21.90;76.70;;;;;;5914572;29;89016;-69
2022/05/04 11:10:50;;;;;;;4.53;4.13;;;21.90;76.70;;;;;;5914725;29;89390;-69
2022/05/04 11:13:52;;;;;;;4.40;4.00;;;21.90;76.60;;;;;;5915412;29;88766;-69
2022/05/04 11:16:56;;;;;;;4.47;4.15;;;21.90;76.70;;;;;;5923998;29;88728;-69
2022/05/04 11:19:58;;;;;;;4.68;4.28;;;21.90;76.70;;;;;;5917645;29;88154;-70
2022/05/04 11:23:01;;;;;;;4.50;4.10;;;21.90;76.70;;;;;;5923192;29;87680;-68
2022/05/04 11:26:04;;;;;;;4.00;3.70;;;21.90;76.70;;;;;;5919678;29;90040;-69
2022/05/04 11:29:10;;;;;;;4.10;3.75;;;22.00;76.80;;;;;;5915881;29;87994;-69
2022/05/04 11:32:19;;;;;;;4.40;4.00;;;21.90;76.70;;;;;;5903221;29;89255;-69
2022/05/04 11:35:21;;;;;;;4.38;3.97;;;21.90;76.70;;;;;;5907259;29;89253;-67
2022/05/04 11:38:25;;;;;;;4.25;3.90;;;21.90;76.70;;;;;;5914148;29;89643;-69
2022/05/04 11:41:28;;;;;;;4.32;3.95;;;21.90;76.70;;;;;;5924814;29;88067;-69
2022/05/04 11:44:31;;;;;;;4.28;3.97;;;21.90;76.70;;;;;;5915594;29;89601;-69
2022/05/04 11:47:33;;;;;;;4.10;3.70;;;21.90;77.60;;;;;;5919257;29;88331;-69
2022/05/04 11:50:35;;;;;;;4.68;4.28;;;21.90;76.90;;;;;;5912085;29;89145;-68
2022/05/04 11:53:39;;;;;;;5.50;3.72;;;22.00;77.00;;;;;;5924801;29;89206;-69
2022/05/04 11:56:43;;;;;;;4.35;3.92;;;22.00;77.20;;;;;;5931702;29;90116;-68
2022/05/04 11:59:47;;;;;;;4.30;3.90;;;21.90;77.20;;;;;;5934121;29;89130;-69
2022/05/04 12:02:49;;;;;;;4.18;3.78;;;21.90;77.10;;;;;;5902572;29;89328;-69
2022/05/04 12:05:52;;;;;;;4.15;3.78;;;21.90;77.10;;;;;;5913943;29;88996;-69
2022/05/04 12:08:56;;;;;;;3.90;3.60;;;22.00;77.20;;;;;;5913324;29;89304;-69
2022/05/04 12:11:59;;;;;;;3.85;3.50;;;22.00;77.20;;;;;;5913442;29;89230;-69
2022/05/04 12:15:02;;;;;;;4.22;3.60;;;22.00;77.20;;;;;;5913460;29;89199;-69
2022/05/04 12:18:06;;;;;;;3.92;3.60;;;22.00;77.30;;;;;;5924039;29;88426;-69
2022/05/04 12:21:09;;;;;;;3.85;3.30;;;22.00;77.20;;;;;;5925376;29;88164;-69
2022/05/04 12:24:14;;;;;;;3.72;3.42;;;22.00;77.10;;;;;;5913269;29;89112;-70
2022/05/04 12:27:16;;;;;;;3.88;3.22;;;22.00;77.10;;;;;;5912296;29;90103;-69
2022/05/04 12:33:38;;;;;;;3.90;3.60;;;22.00;77.10;;;;;;5913118;29;87381;-69
2022/05/04 12:36:41;;;;;;;3.70;3.40;;;22.00;77.00;;;;;;5913006;29;89099;-69
2022/05/04 12:39:45;;;;;;;4.25;3.85;;;22.00;77.00;;;;;;5913001;29;89309;-70
2022/05/04 12:42:47;;;;;;;3.90;3.60;;;22.00;77.10;;;;;;5913829;29;89072;-69
2022/05/04 12:45:49;;;;;;;3.78;3.47;;;22.00;77.00;;;;;;5914638;29;89103;-70
2022/05/04 12:48:51;;;;;;;3.42;3.13;;;22.00;77.00;;;;;;5915038;29;88555;-69
2022/05/04 12:51:54;;;;;;;4.20;3.40;;;22.00;77.00;;;;;;5902293;29;89033;-69
2022/05/04 12:54:57;;;;;;;3.65;3.35;;;22.00;77.00;;;;;;5914177;29;89251;-69
2022/05/04 12:57:59;;;;;;;4.03;3.38;;;22.00;77.10;;;;;;5933381;29;90146;-69
2022/05/04 13:01:01;;;;;;;3.60;3.30;;;22.00;77.10;;;;;;5912845;29;89105;-69
2022/05/04 13:04:03;;;;;;;3.50;3.20;;;22.00;77.00;;;;;;5912750;29;88035;-70
2022/05/04 13:07:06;;;;;;;3.50;3.28;;;22.00;77.00;;;;;;5912254;29;89025;-69
2022/05/04 13:10:11;;;;;;;3.38;3.08;;;22.00;77.00;;;;;;5912966;29;91589;-69
2022/05/04 13:13:13;;;;;;;3.42;3.10;;;22.00;76.90;;;;;;5912796;29;89414;-69
2022/05/04 13:16:15;;;;;;;3.53;3.22;;;22.00;77.00;;;;;;5911058;29;89146;-67
2022/05/04 13:19:18;;;;;;;3.60;3.30;;;22.00;76.90;;;;;;5924585;29;88366;-69
2022/05/04 13:22:20;;;;;;;3.53;3.22;;;22.00;77.90;;;;;;5924492;29;89085;-69
2022/05/04 13:25:23;;;;;;;3.40;3.10;;;22.00;76.90;;;;;;5923146;29;88157;-69
2022/05/04 13:28:26;;;;;;;3.20;2.90;;;22.00;76.90;;;;;;5913049;29;90130;-69
2022/05/04 13:31:30;;;;;;;3.10;2.80;;;22.00;76.90;;;;;;5912206;29;89171;-70
2022/05/04 13:34:32;;;;;;;3.40;3.10;;;22.00;76.90;;;;;;5924396;29;89241;-69
2022/05/04 13:37:34;;;;;;;3.10;2.90;;;22.00;76.90;;;;;;5913440;29;89084;-69
2022/05/04 13:40:37;;;;;;;3.00;2.80;;;22.00;76.90;;;;;;5909293;29;89117;-70
2022/05/04 13:43:39;;;;;;;3.30;3.00;;;22.00;76.90;;;;;;5911781;29;89283;-69
2022/05/04 13:46:42;;;;;;;3.88;3.17;;;22.00;76.90;;;;;;5915738;29;88173;-70
2022/05/04 13:49:44;;;;;;;4.35;2.88;;;22.00;76.90;;;;;;5916895;29;88288;-69
2022/05/04 13:56:06;;;;;;;3.25;2.95;;;22.00;76.90;;;;;;5921244;29;87510;-70
2022/05/04 13:59:08;;;;;;;3.15;2.95;;;22.00;76.90;;;;;;5936949;29;90068;-69
2022/05/04 14:02:11;;;;;;;3.50;2.95;;;22.00;76.90;;;;;;5909018;29;88955;-69
2022/05/04 14:05:13;;;;;;;3.50;3.20;;;22.00;76.90;;;;;;5917365;29;89387;-69
2022/05/04 14:08:15;;;;;;;3.40;3.10;;;22.00;76.80;;;;;;5917070;29;89127;-70
2022/05/04 14:11:37;;;;;;;3.65;3.35;;;22.00;76.90;;;;;;5917286;29;89224;-70
2022/05/04 14:17:58;;;;;;;3.70;3.40;;;22.00;76.90;;;;;;5927515;29;87380;-69
2022/05/04 14:21:02;;;;;;;3.65;3.35;;;22.00;76.90;;;;;;5927545;29;87682;-70
2022/05/04 14:24:04;;;;;;;3.88;3.58;;;22.00;76.90;;;;;;5924591;29;88906;-70
2022/05/04 14:27:08;;;;;;;3.92;3.63;;;22.00;76.90;;;;;;5916679;29;89403;-70
2022/05/04 14:30:10;;;;;;;3.63;3.33;;;22.00;76.90;;;;;;5917370;29;90207;-69
2022/05/04 14:33:13;;;;;;;3.97;3.67;;;22.00;76.90;;;;;;5926859;29;89104;-70
2022/05/04 14:36:15;;;;;;;3.75;3.40;;;22.00;77.00;;;;;;5915316;29;89130;-69
2022/05/04 14:39:17;;;;;;;3.95;3.55;;;22.00;76.90;;;;;;5906076;29;89061;-71
2022/05/04 14:42:20;;;;;;;4.05;3.65;;;22.00;77.80;;;;;;5904631;29;89028;-70
2022/05/04 14:45:22;;;;;;;3.90;3.60;;;22.00;76.90;;;;;;5917336;29;88053;-69
2022/05/04 14:48:24;;;;;;;4.70;4.30;;;22.00;76.90;;;;;;5904804;29;88958;-70
2022/05/04 14:51:26;;;;;;;4.72;4.32;;;22.00;76.90;;;;;;5904541;29;88413;-70
2022/05/04 14:54:28;;;;;;;3.90;3.60;;;22.00;77.00;;;;;;5919334;29;89493;-70
2022/05/04 14:57:32;;;;;;;4.53;4.13;;;22.00;76.90;;;;;;5935123;29;89492;-69
2022/05/04 15:00:34;;;;;;;4.00;3.70;;;22.00;76.90;;;;;;5916818;29;90050;-70
2022/05/04 15:06:55;;;;;;;4.10;3.78;;;22.00;76.90;;;;;;5916119;29;87367;-70
2022/05/04 15:09:58;;;;;;;3.92;3.63;;;22.00;77.00;;;;;;5903958;29;89017;-70
2022/05/04 15:13:01;;;;;;;4.05;3.75;;;22.00;76.90;;;;;;5915893;29;89418;-70
2022/05/04 15:16:03;;;;;;;3.95;3.65;;;22.00;76.90;;;;;;5916893;29;89110;-68
2022/05/04 15:19:05;;;;;;;4.00;3.70;;;22.00;76.90;;;;;;5926399;29;89202;-71
2022/05/04 15:22:08;;;;;;;4.00;3.70;;;22.00;77.00;;;;;;5915381;29;87178;-69
2022/05/04 15:25:10;;;;;;;3.90;3.60;;;22.00;76.90;;;;;;5914865;29;89179;-68
2022/05/04 15:28:14;;;;;;;4.05;3.75;;;22.00;77.00;;;;;;5915856;29;89497;-69
2022/05/04 15:31:16;;;;;;;4.43;3.90;;;22.00;77.10;;;;;;5915010;29;90024;-70
2022/05/04 15:34:18;;;;;;;4.45;3.90;;;22.00;77.10;;;;;;5915080;29;87880;-70
2022/05/04 15:37:20;;;;;;;4.05;3.75;;;22.00;77.00;;;;;;5922123;29;87181;-69
2022/05/04 15:40:22;;;;;;;3.90;3.60;;;22.00;77.00;;;;;;5920967;29;89405;-69
2022/05/04 15:43:26;;;;;;;3.90;3.60;;;22.00;77.00;;;;;;5907380;29;89232;-69
2022/05/04 15:46:28;;;;;;;4.22;3.50;;;22.10;77.10;;;;;;5910582;29;89081;-69
2022/05/04 15:49:30;;;;;;;3.88;3.58;;;22.00;77.10;;;;;;5914506;29;89092;-69
2022/05/04 15:52:33;;;;;;;3.83;3.53;;;22.00;77.10;;;;;;5915564;29;88379;-69
2022/05/04 15:55:35;;;;;;;3.67;3.38;;;22.00;77.10;;;;;;5916049;29;89325;-70
2022/05/04 15:58:38;;;;;;;3.83;3.53;;;22.00;77.10;;;;;;5938168;29;89189;-70
2022/05/04 16:01:40;;;;;;;3.80;3.50;;;22.00;77.10;;;;;;5908527;29;90402;-70
2022/05/04 16:04:43;;;;;;;3.95;3.65;;;22.00;77.10;;;;;;5915080;29;89210;-70
2022/05/04 16:07:45;;;;;;;4.00;3.70;;;22.00;77.00;;;;;;5916288;29;89420;-70
2022/05/04 16:10:48;;;;;;;4.20;3.45;;;22.10;77.10;;;;;;5913919;29;89149;-68
2022/05/04 16:13:51;;;;;;;3.67;3.38;;;22.00;77.00;;;;;;5925049;29;89084;-70
2022/05/04 16:23:32;;;;;;;3.50;3.17;;;22.00;76.90;;;;;;5915134;29;86428;-69
2022/05/04 16:26:34;;;;;;;3.85;3.50;;;22.10;77.00;;;;;;5926014;29;87836;-70
2022/05/04 16:29:38;;;;;;;3.53;3.22;;;22.00;76.90;;;;;;5904498;29;89128;-67
2022/05/04 16:32:41;;;;;;;3.25;3.05;;;22.00;76.90;;;;;;5913731;29;89790;-70
2022/05/04 16:35:43;;;;;;;4.60;3.08;;;22.00;76.90;;;;;;5914555;29;89321;-70
2022/05/04 16:38:45;;;;;;;3.85;3.55;;;22.00;76.80;;;;;;5913981;29;89422;-70
2022/05/04 16:41:47;;;;;;;3.65;3.35;;;22.00;76.90;;;;;;5902459;29;89167;-70
2022/05/04 16:44:51;;;;;;;3.08;2.88;;;22.00;76.80;;;;;;5916895;29;89093;-70